createdAt,value
2017-08-30T00:00:58.567Z,11.40
2017-08-30T00:03:26.043Z,11.90
2017-08-30T00:05:53.516Z,12.07
2017-08-30T00:08:20.978Z,11.37
2017-08-30T00:10:48.455Z,10.10
2017-08-30T00:13:16.238Z,11.23
2017-08-30T00:15:43.703Z,10.30
2017-08-30T00:18:11.176Z,10.93
2017-08-30T00:20:38.656Z,11.50
2017-08-30T00:23:06.127Z,10.30
2017-08-30T00:25:45.461Z,11.17
2017-08-30T00:28:12.927Z,10.90
2017-08-30T00:30:40.424Z,10.87
2017-08-30T00:33:07.888Z,11.77
2017-08-30T00:35:35.355Z,11.37
2017-08-30T00:38:02.832Z,11.33
2017-08-30T00:40:30.303Z,11.50
2017-08-30T00:42:57.791Z,11.00
2017-08-30T00:45:25.264Z,10.10
2017-08-30T00:47:52.742Z,11.97
2017-08-30T00:50:20.208Z,12.83
2017-08-30T00:52:47.683Z,10.87
2017-08-30T00:55:15.152Z,11.50
2017-08-30T00:57:42.628Z,12.37
2017-08-30T01:00:10.090Z,11.30
2017-08-30T01:02:38.332Z,10.77
2017-08-30T01:05:05.800Z,11.57
2017-08-30T01:07:33.285Z,11.10
2017-08-30T01:10:00.764Z,10.83
2017-08-30T01:12:28.275Z,10.90
2017-08-30T01:14:55.734Z,11.00
2017-08-30T01:17:23.208Z,11.30
2017-08-30T01:19:50.678Z,12.00
2017-08-30T01:22:18.161Z,10.30
2017-08-30T01:24:45.632Z,12.33
2017-08-30T01:27:13.115Z,11.77
2017-08-30T01:29:40.580Z,10.80
2017-08-30T01:32:08.063Z,11.13
2017-08-30T01:34:35.527Z,11.83
2017-08-30T01:37:03.013Z,11.53
2017-08-30T01:39:30.481Z,11.57
2017-08-30T01:41:58.212Z,11.77
2017-08-30T01:44:25.674Z,11.90
2017-08-30T01:46:53.160Z,11.43
2017-08-30T01:49:20.629Z,13.10
2017-08-30T01:51:48.103Z,11.70
2017-08-30T01:54:15.571Z,13.20
2017-08-30T01:56:43.199Z,13.07
2017-08-30T01:59:10.673Z,11.50
2017-08-30T02:01:38.136Z,12.43
2017-08-30T02:04:05.616Z,11.17
2017-08-30T02:06:33.083Z,11.47
2017-08-30T02:09:00.564Z,11.07
2017-08-30T02:11:28.029Z,11.60
2017-08-30T02:13:55.511Z,12.17
2017-08-30T02:16:22.975Z,12.10
2017-08-30T02:18:50.476Z,11.13
2017-08-30T02:21:18.719Z,10.60
2017-08-30T02:23:46.415Z,11.17
2017-08-30T02:26:14.293Z,11.73
2017-08-30T02:28:41.790Z,11.70
2017-08-30T02:31:09.264Z,12.03
2017-08-30T02:33:36.731Z,11.67
2017-08-30T02:36:04.212Z,11.30
2017-08-30T02:38:31.676Z,11.50
2017-08-30T02:40:59.151Z,12.83
2017-08-30T02:43:26.624Z,11.83
2017-08-30T02:45:54.116Z,12.10
2017-08-30T02:48:21.584Z,11.50
2017-08-30T02:50:49.068Z,11.50
2017-08-30T02:53:16.544Z,12.97
2017-08-30T02:55:44.020Z,11.77
2017-08-30T02:58:11.495Z,12.83
2017-08-30T03:00:38.984Z,11.43
2017-08-30T03:03:06.455Z,11.90
2017-08-30T03:05:33.940Z,12.20
2017-08-30T03:08:01.409Z,12.53
2017-08-30T03:10:28.884Z,12.73
2017-08-30T03:12:56.364Z,12.80
2017-08-30T03:15:23.844Z,12.20
2017-08-30T03:17:51.654Z,11.90
2017-08-30T03:20:19.124Z,11.40
2017-08-30T03:22:46.588Z,11.70
2017-08-30T03:25:14.073Z,12.00
2017-08-30T03:27:41.680Z,11.80
2017-08-30T03:30:09.217Z,11.57
2017-08-30T03:32:36.689Z,12.00
2017-08-30T03:35:04.176Z,12.40
2017-08-30T03:37:31.650Z,12.87
2017-08-30T03:39:59.116Z,13.10
2017-08-30T03:42:26.611Z,11.57
2017-08-30T03:44:54.077Z,13.80
2017-08-30T03:47:21.547Z,12.90
2017-08-30T03:49:49.026Z,12.37
2017-08-30T03:52:16.512Z,12.33
2017-08-30T03:54:43.982Z,12.90
2017-08-30T03:57:11.463Z,12.80
2017-08-30T03:59:38.936Z,11.97
2017-08-30T04:02:06.818Z,12.67
2017-08-30T04:04:34.281Z,13.53
2017-08-30T04:07:01.772Z,14.10
2017-08-30T04:09:29.240Z,13.93
2017-08-30T04:11:56.724Z,13.23
2017-08-30T04:14:24.196Z,13.00
2017-08-30T04:16:51.680Z,13.50
2017-08-30T04:19:19.154Z,12.40
2017-08-30T04:21:46.631Z,14.97
2017-08-30T04:24:14.100Z,12.50
2017-08-30T04:26:41.602Z,13.70
2017-08-30T04:29:09.079Z,14.23
2017-08-30T04:31:36.568Z,13.33
2017-08-30T04:34:04.035Z,14.10
2017-08-30T04:36:31.512Z,13.90
2017-08-30T04:38:59.001Z,13.30
2017-08-30T04:41:26.477Z,14.80
2017-08-30T04:43:53.956Z,12.43
2017-08-30T04:46:21.432Z,12.87
2017-08-30T04:48:48.908Z,14.10
2017-08-30T04:51:16.392Z,13.80
2017-08-30T04:53:43.871Z,14.17
2017-08-30T04:56:11.345Z,13.90
2017-08-30T04:58:38.825Z,15.23
2017-08-30T05:01:06.312Z,13.90
2017-08-30T05:03:33.803Z,14.07
2017-08-30T05:06:01.288Z,14.50
2017-08-30T05:08:28.790Z,13.77
2017-08-30T05:10:56.264Z,14.73
2017-08-30T05:13:23.735Z,14.07
2017-08-30T05:15:51.212Z,14.90
2017-08-30T05:18:19.886Z,15.27
2017-08-30T05:20:47.372Z,15.20
2017-08-30T05:23:14.845Z,13.97
2017-08-30T05:25:42.338Z,13.70
2017-08-30T05:28:09.800Z,13.97
2017-08-30T05:30:37.284Z,15.83
2017-08-30T05:33:04.810Z,14.23
2017-08-30T05:35:32.288Z,15.97
2017-08-30T05:37:59.761Z,16.10
2017-08-30T05:40:27.238Z,15.67
2017-08-30T05:42:54.713Z,15.43
2017-08-30T05:45:22.210Z,14.93
2017-08-30T05:47:49.688Z,15.50
2017-08-30T05:50:17.479Z,16.30
2017-08-30T05:52:44.948Z,15.50
2017-08-30T05:55:12.446Z,17.60
2017-08-30T05:57:39.916Z,15.00
2017-08-30T06:00:07.392Z,17.37
2017-08-30T06:02:34.870Z,15.60
2017-08-30T06:05:02.352Z,16.10
2017-08-30T06:07:29.824Z,16.50
2017-08-30T06:09:57.311Z,16.83
2017-08-30T06:12:24.780Z,16.10
2017-08-30T06:14:52.268Z,17.03
2017-08-30T06:17:20.200Z,16.57
2017-08-30T06:19:47.704Z,15.00
2017-08-30T06:22:15.175Z,17.10
2017-08-30T06:24:42.664Z,15.80
2017-08-30T06:27:10.144Z,16.00
2017-08-30T06:29:37.624Z,17.20
2017-08-30T06:32:05.101Z,16.10
2017-08-30T06:34:32.584Z,14.83
2017-08-30T06:37:00.057Z,15.33
2017-08-30T06:39:27.540Z,15.50
2017-08-30T06:41:55.013Z,15.70
2017-08-30T06:44:22.494Z,14.80
2017-08-30T06:46:49.968Z,14.93
2017-08-30T06:49:17.459Z,15.50
2017-08-30T06:51:44.924Z,15.00
2017-08-30T06:54:12.428Z,13.90
2017-08-30T06:56:40.663Z,14.73
2017-08-30T06:59:08.139Z,13.43
2017-08-30T07:01:35.628Z,12.60
2017-08-30T07:04:03.109Z,13.10
2017-08-30T07:06:30.594Z,13.03
2017-08-30T07:08:58.065Z,12.53
2017-08-30T07:11:25.540Z,11.97
2017-08-30T07:13:53.012Z,13.33
2017-08-30T07:16:20.492Z,13.17
2017-08-30T07:18:48.729Z,13.40
2017-08-30T07:21:16.209Z,12.30
2017-08-30T07:23:43.687Z,11.90
2017-08-30T07:26:11.176Z,10.93
2017-08-30T07:28:38.654Z,10.97
2017-08-30T07:31:06.119Z,10.47
2017-08-30T07:33:33.604Z,11.93
2017-08-30T07:36:01.104Z,11.00
2017-08-30T07:38:28.594Z,11.50
2017-08-30T07:40:56.064Z,10.70
2017-08-30T07:43:23.550Z,11.53
2017-08-30T07:45:51.025Z,11.03
2017-08-30T07:48:18.507Z,10.60
2017-08-30T07:50:45.987Z,10.93
2017-08-30T07:53:13.467Z,10.13
2017-08-30T07:55:40.941Z,10.03
2017-08-30T07:58:08.421Z,10.43
2017-08-30T08:00:35.896Z,10.23
2017-08-30T08:03:03.380Z,9.37
2017-08-30T08:05:30.845Z,9.80
2017-08-30T08:07:58.325Z,9.33
2017-08-30T08:10:25.786Z,8.67
2017-08-30T08:12:53.265Z,9.53
2017-08-30T08:15:20.736Z,10.30
2017-08-30T08:17:48.209Z,11.20
2017-08-30T08:20:15.688Z,9.50
2017-08-30T08:22:43.151Z,8.03
2017-08-30T08:25:10.628Z,9.73
2017-08-30T08:27:38.101Z,9.00
2017-08-30T08:30:05.571Z,8.83
2017-08-30T08:32:33.043Z,9.10
2017-08-30T08:35:00.548Z,9.20
2017-08-30T08:37:28.476Z,9.50
2017-08-30T08:39:55.984Z,8.80
2017-08-30T08:42:23.457Z,9.33
2017-08-30T08:44:51.700Z,8.37
2017-08-30T08:47:19.180Z,9.00
2017-08-30T08:49:46.652Z,8.33
2017-08-30T08:52:14.356Z,8.97
2017-08-30T08:54:41.913Z,9.00
2017-08-30T08:57:09.387Z,8.90
2017-08-30T08:59:36.870Z,8.03
2017-08-30T09:02:04.337Z,7.40
2017-08-30T09:04:31.815Z,8.20
2017-08-30T09:06:59.288Z,8.47
2017-08-30T09:09:26.759Z,7.97
2017-08-30T09:11:54.231Z,7.40
2017-08-30T09:14:21.716Z,8.13
2017-08-30T09:16:49.192Z,7.33
2017-08-30T09:19:16.672Z,6.77
2017-08-30T09:21:44.147Z,8.70
2017-08-30T09:24:11.616Z,7.30
2017-08-30T09:26:39.152Z,8.37
2017-08-30T09:29:06.637Z,8.30
2017-08-30T09:31:34.113Z,8.50
2017-08-30T09:34:01.585Z,7.10
2017-08-30T09:36:29.062Z,8.00
2017-08-30T09:38:56.528Z,8.80
2017-08-30T09:41:24.013Z,8.13
2017-08-30T09:43:51.482Z,8.70
2017-08-30T09:46:18.952Z,7.83
2017-08-30T09:48:46.638Z,7.13
2017-08-30T09:51:14.422Z,7.77
2017-08-30T09:53:41.925Z,8.30
2017-08-30T09:56:09.401Z,8.37
2017-08-30T09:58:37.592Z,8.17
2017-08-30T10:01:05.077Z,8.57
2017-08-30T10:03:32.540Z,8.60
2017-08-30T10:06:00.011Z,9.23
2017-08-30T10:08:27.619Z,8.60
2017-08-30T10:10:55.088Z,8.20
2017-08-30T10:13:22.576Z,9.50
2017-08-30T10:15:50.054Z,8.50
2017-08-30T10:18:17.621Z,8.30
2017-08-30T10:20:45.090Z,8.03
2017-08-30T10:23:12.563Z,8.20
2017-08-30T10:25:40.033Z,8.10
2017-08-30T10:28:07.518Z,9.37
2017-08-30T10:30:34.983Z,8.17
2017-08-30T10:33:02.453Z,8.93
2017-08-30T10:35:29.924Z,8.97
2017-08-30T10:37:57.397Z,8.87
2017-08-30T10:40:24.868Z,9.37
2017-08-30T10:42:52.347Z,9.20
2017-08-30T10:45:19.811Z,8.50
2017-08-30T10:47:47.298Z,8.77
2017-08-30T10:50:14.772Z,8.77
2017-08-30T10:52:43.078Z,9.53
2017-08-30T10:55:10.549Z,8.77
2017-08-30T10:57:38.016Z,9.10
2017-08-30T11:00:05.490Z,9.50
2017-08-30T11:02:32.955Z,8.13
2017-08-30T11:05:00.438Z,8.67
2017-08-30T11:07:27.905Z,9.77
2017-08-30T11:09:55.380Z,9.50
2017-08-30T11:12:22.854Z,7.83
2017-08-30T11:14:50.325Z,8.20
2017-08-30T11:17:17.800Z,8.33
2017-08-30T11:19:45.277Z,9.23
2017-08-30T11:22:12.744Z,8.50
2017-08-30T11:24:40.225Z,7.77
2017-08-30T11:27:07.695Z,9.20
2017-08-30T11:29:35.173Z,9.47
2017-08-30T11:32:02.645Z,8.53
2017-08-30T11:34:30.117Z,8.23
2017-08-30T11:36:57.603Z,8.40
2017-08-30T11:39:25.078Z,8.80
2017-08-30T11:41:52.541Z,9.50
2017-08-30T11:44:20.131Z,8.73
2017-08-30T11:46:47.643Z,10.00
2017-08-30T11:49:15.117Z,8.40
2017-08-30T11:51:42.590Z,10.40
2017-08-30T11:54:10.148Z,8.73
2017-08-30T11:56:37.825Z,9.40
2017-08-30T11:59:06.088Z,8.37
2017-08-30T12:01:33.565Z,7.73
2017-08-30T12:04:01.027Z,9.50
2017-08-30T12:06:28.510Z,8.50
2017-08-30T12:08:55.976Z,8.13
2017-08-30T12:11:23.456Z,9.27
2017-08-30T12:13:50.920Z,8.13
2017-08-30T12:16:18.399Z,9.37
2017-08-30T12:18:45.868Z,7.97
2017-08-30T12:21:13.348Z,8.33
2017-08-30T12:23:40.813Z,8.40
2017-08-30T12:26:08.296Z,10.67
2017-08-30T12:28:36.068Z,9.47
2017-08-30T12:31:03.537Z,9.40
2017-08-30T12:33:31.014Z,8.70
2017-08-30T12:35:58.492Z,9.30
2017-08-30T12:41:25.553Z,9.10
2017-08-30T12:43:59.833Z,8.97
2017-08-30T12:46:27.789Z,8.87
2017-08-30T12:48:55.257Z,8.97
2017-08-30T12:51:22.745Z,9.20
2017-08-30T12:53:50.217Z,9.37
2017-08-30T12:56:17.696Z,8.40
2017-08-30T12:58:45.933Z,8.63
2017-08-30T13:01:13.409Z,8.97
2017-08-30T13:03:40.884Z,9.43
2017-08-30T13:06:08.354Z,9.20
2017-08-30T13:08:35.832Z,8.93
2017-08-30T13:11:03.308Z,9.10
2017-08-30T13:13:30.784Z,8.60
2017-08-30T13:15:58.252Z,8.77
2017-08-30T13:18:25.732Z,9.60
2017-08-30T13:20:53.202Z,8.53
2017-08-30T13:23:20.683Z,8.77
2017-08-30T13:25:48.149Z,8.90
2017-08-30T13:28:15.624Z,8.87
2017-08-30T13:30:43.093Z,8.67
2017-08-30T13:33:10.573Z,8.47
2017-08-30T13:35:38.033Z,9.63
2017-08-30T13:38:05.522Z,9.00
2017-08-30T13:40:32.983Z,9.10
2017-08-30T13:43:00.465Z,8.10
2017-08-30T13:45:27.941Z,9.40
2017-08-30T13:47:55.421Z,9.20
2017-08-30T13:50:23.663Z,10.10
2017-08-30T13:52:51.133Z,7.97
2017-08-30T13:55:18.600Z,9.20
2017-08-30T13:57:46.077Z,9.93
2017-08-30T14:00:13.549Z,8.80
2017-08-30T14:02:41.027Z,9.07
2017-08-30T14:05:08.505Z,9.30
2017-08-30T14:07:36.063Z,9.80
2017-08-30T14:10:03.534Z,9.33
2017-08-30T14:12:31.017Z,10.50
2017-08-30T14:14:58.480Z,8.90
2017-08-30T14:17:25.964Z,13.30
2017-08-30T14:19:53.431Z,11.37
2017-08-30T14:22:20.909Z,9.50
2017-08-30T14:24:48.384Z,8.37
2017-08-30T14:27:15.860Z,9.47
2017-08-30T14:29:43.332Z,9.70
2017-08-30T14:32:10.804Z,8.70
2017-08-30T14:34:38.290Z,8.20
2017-08-30T14:37:05.764Z,8.40
2017-08-30T14:39:33.243Z,8.60
2017-08-30T14:42:00.713Z,8.03
2017-08-30T14:44:28.205Z,8.30
2017-08-30T14:46:55.665Z,9.07
2017-08-30T14:49:23.145Z,8.97
2017-08-30T14:51:50.617Z,9.00
2017-08-30T14:54:18.116Z,8.27
2017-08-30T14:56:45.589Z,9.00
2017-08-30T14:59:13.065Z,9.20
2017-08-30T15:01:40.534Z,8.27
2017-08-30T15:04:08.008Z,8.57
2017-08-30T15:06:35.484Z,8.27
2017-08-30T15:09:02.973Z,8.43
2017-08-30T15:11:30.452Z,9.23
2017-08-30T15:13:57.941Z,9.27
2017-08-30T15:16:25.407Z,8.00
2017-08-30T15:18:52.896Z,10.03
2017-08-30T15:21:20.360Z,7.83
2017-08-30T15:23:47.844Z,8.40
2017-08-30T15:26:15.314Z,9.13
2017-08-30T15:28:42.784Z,7.80
2017-08-30T15:31:10.257Z,9.77
2017-08-30T15:33:37.740Z,8.90
2017-08-30T15:36:05.217Z,9.17
2017-08-30T15:38:32.697Z,9.77
2017-08-30T15:41:00.171Z,8.87
2017-08-30T15:43:27.644Z,8.50
2017-08-30T15:45:55.111Z,8.63
2017-08-30T15:48:22.592Z,9.00
2017-08-30T15:50:50.051Z,8.83
2017-08-30T15:53:17.529Z,8.97
2017-08-30T15:55:45.004Z,9.57
2017-08-30T15:58:12.488Z,9.50
2017-08-30T16:00:39.953Z,10.13
2017-08-30T16:03:07.434Z,8.90
2017-08-30T16:05:34.909Z,9.03
2017-08-30T16:08:02.396Z,8.73
2017-08-30T16:10:29.860Z,9.50
2017-08-30T16:12:57.333Z,10.60
2017-08-30T16:15:24.814Z,11.93
2017-08-30T16:17:52.286Z,9.60
2017-08-30T16:20:19.763Z,10.47
2017-08-30T16:22:47.238Z,9.83
2017-08-30T16:25:14.708Z,9.80
2017-08-30T16:27:42.185Z,10.63
2017-08-30T16:30:09.656Z,9.43
2017-08-30T16:32:37.117Z,8.53
2017-08-30T16:35:04.597Z,9.90
2017-08-30T16:37:32.065Z,9.70
2017-08-30T16:39:59.554Z,10.17
2017-08-30T16:42:27.029Z,10.73
2017-08-30T16:44:54.508Z,10.03
2017-08-30T16:47:21.978Z,9.80
2017-08-30T16:49:49.462Z,10.67
2017-08-30T16:52:16.940Z,10.53
2017-08-30T16:54:44.417Z,9.57
2017-08-30T16:57:11.894Z,10.40
2017-08-30T16:59:39.381Z,10.30
2017-08-30T17:02:06.860Z,9.37
2017-08-30T17:04:34.335Z,10.10
2017-08-30T17:07:01.817Z,10.07
2017-08-30T17:09:29.296Z,10.43
2017-08-30T17:11:56.780Z,10.20
2017-08-30T17:14:24.254Z,10.20
2017-08-30T17:16:51.728Z,9.83
2017-08-30T17:19:19.199Z,10.00
2017-08-30T17:21:46.684Z,9.67
2017-08-30T17:24:14.160Z,10.77
2017-08-30T17:26:41.648Z,10.43
2017-08-30T17:29:09.116Z,10.70
2017-08-30T17:31:36.598Z,8.80
2017-08-30T17:34:04.072Z,9.93
2017-08-30T17:36:31.565Z,10.33
2017-08-30T17:38:59.028Z,9.90
2017-08-30T17:41:26.517Z,10.93
2017-08-30T17:44:00.455Z,9.90
2017-08-30T17:46:27.945Z,10.33
2017-08-30T17:48:55.422Z,10.27
2017-08-30T17:51:22.912Z,11.57
2017-08-30T17:53:50.428Z,10.30
2017-08-30T17:56:17.901Z,10.00
2017-08-30T17:58:45.384Z,11.10
2017-08-30T18:01:12.861Z,10.73
2017-08-30T18:03:40.345Z,10.20
2017-08-30T18:06:08.582Z,11.60
2017-08-30T18:08:36.056Z,10.23
2017-08-30T18:11:03.524Z,11.70
2017-08-30T18:13:31.005Z,10.63
2017-08-30T18:15:58.475Z,10.80
2017-08-30T18:18:25.953Z,11.37
2017-08-30T18:20:53.420Z,11.47
2017-08-30T18:23:20.900Z,10.43
2017-08-30T18:25:48.376Z,10.13
2017-08-30T18:28:15.868Z,12.23
2017-08-30T18:30:43.338Z,11.63
2017-08-30T18:33:10.827Z,11.73
2017-08-30T18:35:38.293Z,13.73
2017-08-30T18:38:05.768Z,11.47
2017-08-30T18:40:33.246Z,12.60
2017-08-30T18:43:00.741Z,12.37
2017-08-30T18:45:28.239Z,12.40
2017-08-30T18:47:55.721Z,12.00
2017-08-30T18:50:23.201Z,11.13
2017-08-30T18:52:50.663Z,11.73
2017-08-30T18:55:18.152Z,12.63
2017-08-30T18:57:45.620Z,12.73
2017-08-30T19:00:13.108Z,12.80
2017-08-30T19:02:40.575Z,11.23
2017-08-30T19:05:08.370Z,12.13
2017-08-30T19:07:35.840Z,11.77
2017-08-30T19:10:03.321Z,12.30
2017-08-30T19:12:30.796Z,12.33
2017-08-30T19:14:58.283Z,11.47
2017-08-30T19:17:25.866Z,11.90
2017-08-30T19:19:53.335Z,11.83
2017-08-30T19:22:20.827Z,12.40
2017-08-30T19:24:48.323Z,12.30
2017-08-30T19:27:15.792Z,12.83
2017-08-30T19:29:43.277Z,13.20
2017-08-30T19:32:10.743Z,11.43
2017-08-30T19:34:38.232Z,12.60
2017-08-30T19:37:05.722Z,12.67
2017-08-30T19:39:33.603Z,13.03
2017-08-30T19:42:01.088Z,12.57
2017-08-30T19:44:28.554Z,13.27
2017-08-30T19:46:56.387Z,12.73
2017-08-30T19:49:23.852Z,13.10
2017-08-30T19:51:51.336Z,13.23
2017-08-30T19:54:18.818Z,14.13
2017-08-30T19:56:46.297Z,12.90
2017-08-30T19:59:13.772Z,13.33
2017-08-30T20:01:41.252Z,12.10
2017-08-30T20:04:08.728Z,12.80
2017-08-30T20:06:36.221Z,12.90
2017-08-30T20:09:04.460Z,12.73
2017-08-30T20:11:31.930Z,13.00
2017-08-30T20:13:59.404Z,12.00
2017-08-30T20:16:26.885Z,11.60
2017-08-30T20:18:54.365Z,12.30
2017-08-30T20:21:21.836Z,12.50
2017-08-30T20:23:49.327Z,12.50
2017-08-30T20:26:16.796Z,12.50
2017-08-30T20:28:44.284Z,13.70
2017-08-30T20:31:11.765Z,13.77
2017-08-30T20:33:39.235Z,11.93
2017-08-30T20:36:06.724Z,12.67
2017-08-30T20:38:34.196Z,12.33
2017-08-30T20:41:01.684Z,12.47
2017-08-30T20:43:29.164Z,13.07
2017-08-30T20:45:56.645Z,11.90
2017-08-30T20:48:24.116Z,12.10
2017-08-30T20:50:51.615Z,12.40
2017-08-30T20:53:19.077Z,13.33
2017-08-30T20:55:46.558Z,12.47
2017-08-30T20:58:14.031Z,11.90
2017-08-30T21:00:41.521Z,10.90
2017-08-30T21:03:08.988Z,12.60
2017-08-30T21:05:36.469Z,12.10
2017-08-30T21:08:03.937Z,11.30
2017-08-30T21:10:31.424Z,11.90
2017-08-30T21:12:58.897Z,12.03
2017-08-30T21:15:26.388Z,10.80
2017-08-30T21:17:53.870Z,11.90
2017-08-30T21:20:21.349Z,10.63
2017-08-30T21:22:48.820Z,11.77
2017-08-30T21:25:16.320Z,11.67
2017-08-30T21:27:43.788Z,10.53
2017-08-30T21:30:11.256Z,11.60
2017-08-30T21:32:38.745Z,11.57
2017-08-30T21:35:06.212Z,12.60
2017-08-30T21:37:33.692Z,11.33
2017-08-30T21:40:01.163Z,9.93
2017-08-30T21:42:28.648Z,10.83
2017-08-30T21:44:56.124Z,10.80
2017-08-30T21:47:23.608Z,11.27
2017-08-30T21:49:51.081Z,12.83
2017-08-30T21:52:18.566Z,10.97
2017-08-30T21:54:46.825Z,11.70
2017-08-30T21:57:14.307Z,10.43
2017-08-30T21:59:41.771Z,10.00
2017-08-30T22:02:09.253Z,10.20
2017-08-30T22:04:36.731Z,9.50
2017-08-30T22:07:04.205Z,9.93
2017-08-30T22:09:31.900Z,8.87
2017-08-30T22:11:59.367Z,10.83
2017-08-30T22:14:27.612Z,8.70
2017-08-30T22:16:55.092Z,8.30
2017-08-30T22:19:23.332Z,10.10
2017-08-30T22:21:50.887Z,9.67
2017-08-30T22:24:18.364Z,8.67
2017-08-30T22:26:45.836Z,8.57
2017-08-30T22:29:13.333Z,7.43
2017-08-30T22:31:40.804Z,8.73
2017-08-30T22:34:08.285Z,9.23
2017-08-30T22:36:35.761Z,7.77
2017-08-30T22:39:03.246Z,8.13
2017-08-30T22:41:30.721Z,8.00
2017-08-30T22:44:01.416Z,9.30
2017-08-30T22:46:28.878Z,8.77
2017-08-30T22:48:56.352Z,8.60
2017-08-30T22:51:23.816Z,9.53
2017-08-30T22:53:51.299Z,8.20
2017-08-30T22:56:18.764Z,7.70
2017-08-30T22:58:46.255Z,9.03
2017-08-30T23:01:13.717Z,7.40
2017-08-30T23:03:41.184Z,7.87
2017-08-30T23:06:08.661Z,8.27
2017-08-30T23:08:36.133Z,8.07
2017-08-30T23:11:03.612Z,7.77
2017-08-30T23:13:31.080Z,8.47
2017-08-30T23:15:58.564Z,8.77
2017-08-30T23:18:26.033Z,8.40
2017-08-30T23:20:53.504Z,8.90
2017-08-30T23:23:20.976Z,8.67
2017-08-30T23:25:48.464Z,8.70
2017-08-30T23:28:15.936Z,8.20
2017-08-30T23:30:43.419Z,8.67
2017-08-30T23:33:10.885Z,8.97
2017-08-30T23:35:38.360Z,8.37
2017-08-30T23:38:05.827Z,7.93
2017-08-30T23:40:33.316Z,9.77
2017-08-30T23:43:00.789Z,8.40
2017-08-30T23:45:28.265Z,8.93
2017-08-30T23:47:55.735Z,8.30
2017-08-30T23:50:23.219Z,8.43
2017-08-30T23:52:50.688Z,9.03
2017-08-30T23:55:18.176Z,8.53
2017-08-30T23:57:45.650Z,8.17
